createdAt,value
2018-09-10T00:01:55.453Z,100.00
2018-09-10T00:05:00.601Z,100.00
2018-09-10T00:08:05.207Z,100.00
2018-09-10T00:11:10.106Z,100.00
2018-09-10T00:14:14.510Z,100.00
2018-09-10T00:17:20.045Z,100.00
2018-09-10T00:20:24.549Z,100.00
2018-09-10T00:23:29.057Z,100.00
2018-09-10T00:26:33.601Z,100.00
2018-09-10T00:29:37.687Z,100.00
2018-09-10T00:32:42.346Z,100.00
2018-09-10T00:35:46.681Z,100.00
2018-09-10T00:38:51.974Z,100.00
2018-09-10T00:41:56.366Z,100.00
2018-09-10T00:45:01.666Z,100.00
2018-09-10T00:48:06.807Z,100.00
2018-09-10T00:51:11.149Z,100.00
2018-09-10T00:54:15.727Z,100.00
2018-09-10T00:57:20.064Z,100.00
2018-09-10T01:00:24.632Z,100.00
2018-09-10T01:03:28.999Z,100.00
2018-09-10T01:06:33.512Z,100.00
2018-09-10T01:09:38.254Z,100.00
2018-09-10T01:12:42.992Z,100.00
2018-09-10T01:15:47.389Z,100.00
2018-09-10T01:18:52.214Z,100.00
2018-09-10T01:21:56.592Z,100.00
2018-09-10T01:25:00.976Z,100.00
2018-09-10T01:28:05.381Z,100.00
2018-09-10T01:31:09.750Z,100.00
2018-09-10T01:34:19.300Z,100.00
2018-09-10T01:37:24.081Z,100.00
2018-09-10T01:40:28.586Z,100.00
2018-09-10T01:43:32.965Z,100.00
2018-09-10T01:46:37.306Z,100.00
2018-09-10T01:49:41.670Z,100.00
2018-09-10T01:52:45.774Z,100.00
2018-09-10T01:55:50.674Z,100.00
2018-09-10T01:58:55.079Z,100.00
2018-09-10T02:01:59.437Z,100.00
2018-09-10T02:05:03.810Z,100.00
2018-09-10T02:08:08.350Z,100.00
2018-09-10T02:11:12.814Z,100.00
2018-09-10T02:14:17.184Z,100.00
2018-09-10T02:17:21.592Z,100.00
2018-09-10T02:20:25.958Z,100.00
2018-09-10T02:23:30.306Z,100.00
2018-09-10T02:26:34.660Z,100.00
2018-09-10T02:29:39.028Z,100.00
2018-09-10T02:32:43.397Z,100.00
2018-09-10T02:35:47.843Z,100.00
2018-09-10T02:38:52.317Z,100.00
2018-09-10T02:41:57.087Z,100.00
2018-09-10T02:45:01.454Z,100.00
2018-09-10T02:48:06.098Z,100.00
2018-09-10T02:51:10.505Z,100.00
2018-09-10T02:54:14.872Z,100.00
2018-09-10T02:57:19.528Z,100.00
2018-09-10T03:00:25.581Z,100.00
2018-09-10T03:03:30.177Z,100.00
2018-09-10T03:06:34.579Z,100.00
2018-09-10T03:09:38.929Z,100.00
2018-09-10T03:12:43.373Z,100.00
2018-09-10T03:15:47.756Z,100.00
2018-09-10T03:18:52.173Z,100.00
2018-09-10T03:21:56.687Z,100.00
2018-09-10T03:25:01.261Z,100.00
2018-09-10T03:28:05.616Z,100.00
2018-09-10T03:31:10.461Z,100.00
2018-09-10T03:34:15.446Z,100.00
2018-09-10T03:37:19.938Z,100.00
2018-09-10T03:40:24.705Z,100.00
2018-09-10T03:43:29.157Z,100.00
2018-09-10T03:46:34.117Z,100.00
2018-09-10T03:49:38.650Z,100.00
2018-09-10T03:52:42.990Z,100.00
2018-09-10T03:55:47.327Z,100.00
2018-09-10T03:58:52.355Z,100.00
2018-09-10T04:01:56.708Z,100.00
2018-09-10T04:05:01.361Z,100.00
2018-09-10T04:08:05.891Z,100.00
2018-09-10T04:11:10.614Z,100.00
2018-09-10T04:14:15.069Z,100.00
2018-09-10T04:17:19.651Z,100.00
2018-09-10T04:20:23.931Z,100.00
2018-09-10T04:23:28.309Z,100.00
2018-09-10T04:26:32.677Z,100.00
2018-09-10T04:29:37.077Z,100.00
2018-09-10T04:32:41.919Z,100.00
2018-09-10T04:35:46.343Z,100.00
2018-09-10T04:38:50.719Z,100.00
2018-09-10T04:41:55.098Z,100.00
2018-09-10T04:45:00.324Z,100.00
2018-09-10T04:48:04.701Z,100.00
2018-09-10T04:51:09.105Z,100.00
2018-09-10T04:54:13.838Z,100.00
2018-09-10T04:57:18.318Z,100.00
2018-09-10T05:00:22.858Z,100.00
2018-09-10T05:03:27.417Z,100.00
2018-09-10T05:06:31.818Z,100.00
2018-09-10T05:09:36.263Z,100.00
2018-09-10T05:12:44.192Z,100.00
2018-09-10T05:15:48.790Z,100.00
2018-09-10T05:18:53.149Z,100.00
2018-09-10T05:21:57.900Z,100.00
2018-09-10T05:25:02.236Z,100.00
2018-09-10T05:28:06.599Z,100.00
2018-09-10T05:31:10.963Z,100.00
2018-09-10T05:34:15.374Z,100.00
2018-09-10T05:37:19.836Z,100.00
2018-09-10T05:40:24.214Z,100.00
2018-09-10T05:43:29.170Z,100.00
2018-09-10T05:46:33.772Z,100.00
2018-09-10T05:49:38.126Z,100.00
2018-09-10T05:52:42.489Z,100.00
2018-09-10T05:55:47.594Z,100.00
2018-09-10T05:58:52.096Z,100.00
2018-09-10T06:01:56.525Z,100.00
2018-09-10T06:05:01.762Z,100.00
2018-09-10T06:08:07.943Z,100.00
2018-09-10T06:11:12.421Z,97.90
2018-09-10T06:14:16.834Z,90.52
2018-09-10T06:17:21.253Z,84.76
2018-09-10T06:20:25.782Z,84.08
2018-09-10T06:23:30.315Z,86.25
2018-09-10T06:26:34.990Z,88.42
2018-09-10T06:29:39.557Z,89.85
2018-09-10T06:32:44.887Z,92.85
2018-09-10T06:35:49.384Z,86.13
2018-09-10T06:41:58.753Z,70.38
2018-09-10T06:45:03.181Z,67.54
2018-09-10T06:48:07.647Z,63.43
2018-09-10T06:51:12.059Z,59.29
2018-09-10T06:54:16.514Z,57.67
2018-09-10T06:57:20.886Z,57.61
2018-09-10T07:00:25.536Z,55.64
2018-09-10T07:03:29.970Z,56.14
2018-09-10T07:06:34.370Z,54.93
2018-09-10T07:09:38.717Z,53.53
2018-09-10T07:12:43.121Z,53.52
2018-09-10T07:15:48.157Z,53.19
2018-09-10T07:18:52.831Z,53.78
2018-09-10T07:21:57.806Z,53.94
2018-09-10T07:25:02.316Z,52.97
2018-09-10T07:28:06.741Z,51.24
2018-09-10T07:31:11.349Z,52.25
2018-09-10T07:34:16.042Z,51.54
2018-09-10T07:37:20.502Z,54.71
2018-09-10T07:40:24.895Z,58.28
2018-09-10T07:43:29.340Z,59.25
2018-09-10T07:46:33.647Z,61.67
2018-09-10T07:49:38.079Z,63.71
2018-09-10T07:52:42.448Z,61.06
2018-09-10T07:55:47.324Z,60.68
2018-09-10T07:58:51.672Z,62.01
2018-09-10T08:01:56.182Z,66.54
2018-09-10T08:05:00.846Z,67.04
2018-09-10T08:08:06.179Z,68.30
2018-09-10T08:11:11.031Z,68.84
2018-09-10T08:14:16.205Z,67.86
2018-09-10T08:17:20.712Z,64.94
2018-09-10T08:20:25.717Z,61.65
2018-09-10T08:23:30.290Z,62.28
2018-09-10T08:26:35.025Z,61.90
2018-09-10T08:29:39.514Z,61.66
2018-09-10T08:32:44.104Z,67.53
2018-09-10T08:35:48.556Z,64.95
2018-09-10T08:38:53.035Z,64.67
2018-09-10T08:41:57.475Z,65.50
2018-09-10T08:45:01.833Z,64.37
2018-09-10T08:48:08.272Z,61.49
2018-09-10T08:51:12.775Z,60.93
2018-09-10T08:54:18.193Z,60.01
2018-09-10T08:57:22.721Z,61.63
2018-09-10T09:00:27.832Z,64.62
2018-09-10T09:03:32.411Z,63.27
2018-09-10T09:06:36.885Z,62.26
2018-09-10T09:09:41.338Z,62.33
2018-09-10T09:12:46.075Z,61.62
2018-09-10T09:15:50.581Z,61.24
2018-09-10T09:18:55.082Z,59.91
2018-09-10T09:21:59.566Z,60.18
2018-09-10T09:25:04.341Z,60.23
2018-09-10T09:28:09.020Z,60.32
2018-09-10T09:31:13.724Z,60.07
2018-09-10T09:34:19.328Z,59.27
2018-09-10T09:37:29.525Z,59.91
2018-09-10T09:40:39.084Z,59.86
2018-09-10T09:43:48.794Z,60.80
2018-09-10T09:46:53.348Z,59.45
2018-09-10T09:49:57.856Z,59.67
2018-09-10T09:53:02.380Z,60.40
2018-09-10T09:56:07.263Z,60.87
2018-09-10T09:59:11.740Z,58.94
2018-09-10T10:02:25.249Z,60.63
2018-09-10T10:05:29.895Z,55.09
2018-09-10T10:08:35.098Z,54.87
2018-09-10T10:11:40.278Z,56.02
2018-09-10T10:14:45.507Z,54.54
2018-09-10T10:17:50.102Z,55.60
2018-09-10T10:20:54.611Z,55.87
2018-09-10T10:23:59.409Z,56.15
2018-09-10T10:27:05.819Z,54.13
2018-09-10T10:30:10.353Z,53.33
2018-09-10T10:33:14.769Z,53.95
2018-09-10T10:36:19.229Z,56.91
2018-09-10T10:39:24.517Z,52.39
2018-09-10T10:42:29.949Z,55.28
2018-09-10T10:45:35.992Z,53.94
2018-09-10T10:48:42.241Z,52.16
2018-09-10T10:51:47.469Z,52.89
2018-09-10T10:54:52.835Z,51.94
2018-09-10T10:57:57.297Z,49.08
2018-09-10T11:01:01.822Z,51.82
2018-09-10T11:04:07.411Z,54.29
2018-09-10T11:07:13.435Z,52.42
2018-09-10T11:10:18.439Z,53.07
2018-09-10T11:13:23.798Z,52.23
2018-09-10T11:16:28.439Z,51.72
2018-09-10T11:19:33.051Z,47.90
2018-09-10T11:22:38.118Z,48.70
2018-09-10T11:25:42.578Z,46.71
2018-09-10T11:28:47.613Z,48.11
2018-09-10T11:31:52.171Z,50.22
2018-09-10T11:34:57.350Z,44.88
2018-09-10T11:38:01.957Z,47.57
2018-09-10T11:41:06.701Z,43.67
2018-09-10T11:44:11.486Z,44.22
2018-09-10T11:47:16.058Z,46.54
2018-09-10T11:50:20.866Z,48.60
2018-09-10T11:53:25.638Z,48.39
2018-09-10T11:56:32.029Z,48.21
2018-09-10T11:59:37.289Z,45.72
2018-09-10T12:02:43.062Z,45.96
2018-09-10T12:05:47.729Z,49.13
2018-09-10T12:08:52.751Z,48.38
2018-09-10T12:11:57.642Z,49.63
2018-09-10T12:15:02.158Z,48.08
2018-09-10T12:18:06.825Z,50.15
2018-09-10T12:21:11.497Z,45.69
2018-09-10T12:24:15.968Z,45.18
2018-09-10T12:27:21.715Z,45.79
2018-09-10T12:30:26.233Z,41.61
2018-09-10T12:33:31.278Z,40.81
2018-09-10T12:36:36.680Z,41.86
2018-09-10T12:39:42.048Z,42.84
2018-09-10T12:42:46.602Z,44.44
2018-09-10T12:45:53.712Z,44.28
2018-09-10T12:48:58.397Z,47.58
2018-09-10T12:52:03.710Z,45.21
2018-09-10T12:55:08.415Z,41.15
2018-09-10T12:58:13.172Z,40.28
2018-09-10T13:01:20.406Z,41.61
2018-09-10T13:04:26.718Z,39.86
2018-09-10T13:07:32.452Z,40.74
2018-09-10T13:10:37.333Z,40.73
2018-09-10T13:13:43.370Z,41.70
2018-09-10T13:16:47.991Z,42.48
2018-09-10T13:19:52.732Z,42.63
2018-09-10T13:22:58.653Z,43.64
2018-09-10T13:26:03.411Z,43.83
2018-09-10T13:29:08.775Z,45.78
2018-09-10T13:32:14.207Z,47.85
2018-09-10T13:35:18.906Z,46.36
2018-09-10T13:38:24.820Z,44.32
2018-09-10T13:41:30.336Z,39.34
2018-09-10T13:44:37.392Z,40.56
2018-09-10T13:47:42.737Z,39.57
2018-09-10T13:50:47.838Z,40.74
2018-09-10T13:53:53.165Z,41.07
2018-09-10T13:56:57.880Z,41.62
2018-09-10T14:00:02.939Z,43.21
2018-09-10T14:03:08.063Z,44.04
2018-09-10T14:06:13.248Z,42.39
2018-09-10T14:09:18.111Z,43.88
2018-09-10T14:12:22.716Z,45.23
2018-09-10T14:15:28.441Z,45.59
2018-09-10T14:18:34.692Z,47.14
2018-09-10T14:21:39.534Z,41.98
2018-09-10T14:24:45.218Z,45.20
2018-09-10T14:27:51.063Z,45.52
2018-09-10T14:30:56.691Z,45.37
2018-09-10T14:34:02.106Z,45.88
2018-09-10T14:37:06.843Z,46.88
2018-09-10T14:40:12.273Z,47.09
2018-09-10T14:43:17.836Z,43.16
2018-09-10T14:46:41.178Z,46.23
2018-09-10T14:49:45.772Z,45.13
2018-09-10T14:52:52.248Z,44.17
2018-09-10T14:55:56.688Z,46.36
2018-09-10T14:59:01.642Z,44.30
2018-09-10T15:02:06.179Z,45.15
2018-09-10T15:05:10.649Z,47.48
2018-09-10T15:08:15.606Z,44.11
2018-09-10T15:11:20.369Z,44.37
2018-09-10T15:14:24.926Z,42.22
2018-09-10T15:17:29.407Z,39.72
2018-09-10T15:20:34.319Z,40.37
2018-09-10T15:23:39.241Z,41.04
2018-09-10T15:26:44.507Z,42.24
2018-09-10T15:29:50.768Z,43.38
2018-09-10T15:32:56.243Z,43.64
2018-09-10T15:36:02.704Z,40.10
2018-09-10T15:39:09.064Z,42.09
2018-09-10T15:42:13.885Z,40.60
2018-09-10T15:45:19.625Z,41.68
2018-09-10T15:48:24.375Z,42.26
2018-09-10T15:51:29.216Z,42.86
2018-09-10T15:54:34.249Z,43.66
2018-09-10T15:57:38.613Z,43.55
2018-09-10T16:00:43.359Z,45.41
2018-09-10T16:03:48.979Z,45.51
2018-09-10T16:06:54.202Z,45.87
2018-09-10T16:09:59.935Z,46.27
2018-09-10T16:13:04.564Z,46.94
2018-09-10T16:16:10.577Z,46.01
2018-09-10T16:19:15.972Z,46.32
2018-09-10T16:22:21.485Z,45.51
2018-09-10T16:25:27.288Z,45.84
2018-09-10T16:28:32.324Z,46.50
2018-09-10T16:31:37.122Z,46.96
2018-09-10T16:34:41.570Z,47.09
2018-09-10T16:37:46.215Z,47.60
2018-09-10T16:40:52.171Z,46.38
2018-09-10T16:43:56.801Z,48.49
2018-09-10T16:47:01.267Z,50.25
2018-09-10T16:50:05.810Z,51.36
2018-09-10T16:53:10.754Z,50.40
2018-09-10T16:56:15.628Z,53.10
2018-09-10T16:59:20.309Z,55.08
2018-09-10T17:02:24.737Z,56.35
2018-09-10T17:05:29.222Z,59.66
2018-09-10T17:08:33.811Z,60.58
2018-09-10T17:11:38.597Z,61.99
2018-09-10T17:14:43.190Z,62.83
2018-09-10T17:17:47.932Z,62.85
2018-09-10T17:20:52.521Z,63.64
2018-09-10T17:23:56.984Z,65.00
2018-09-10T17:27:01.653Z,66.78
2018-09-10T17:30:07.381Z,69.74
2018-09-10T17:33:12.953Z,71.01
2018-09-10T17:36:18.356Z,71.61
2018-09-10T17:39:23.703Z,71.87
2018-09-10T17:42:28.621Z,73.64
2018-09-10T17:45:33.712Z,74.00
2018-09-10T17:48:38.778Z,74.58
2018-09-10T17:51:44.008Z,74.89
2018-09-10T17:54:48.576Z,75.12
2018-09-10T17:57:52.937Z,76.27
2018-09-10T18:00:58.558Z,76.62
2018-09-10T18:04:03.660Z,77.40
2018-09-10T18:07:09.130Z,77.63
2018-09-10T18:10:13.674Z,78.11
2018-09-10T18:13:18.183Z,79.07
2018-09-10T18:16:22.791Z,79.97
2018-09-10T18:19:27.437Z,81.26
2018-09-10T18:22:32.183Z,82.12
2018-09-10T18:25:38.171Z,83.25
2018-09-10T18:28:42.789Z,83.97
2018-09-10T18:31:48.258Z,85.13
2018-09-10T18:34:53.675Z,86.39
2018-09-10T18:37:59.147Z,85.90
2018-09-10T18:41:04.176Z,85.91
2018-09-10T18:44:09.145Z,86.54
2018-09-10T18:47:15.127Z,86.39
2018-09-10T18:50:19.606Z,86.51
2018-09-10T18:53:24.683Z,85.84
2018-09-10T18:56:29.267Z,85.53
2018-09-10T18:59:35.686Z,85.49
2018-09-10T19:02:40.184Z,85.20
2018-09-10T19:05:44.953Z,84.97
2018-09-10T19:08:50.759Z,85.16
2018-09-10T19:11:55.747Z,85.26
2018-09-10T19:15:01.052Z,85.07
2018-09-10T19:18:05.707Z,85.92
2018-09-10T19:21:10.948Z,86.66
2018-09-10T19:24:15.510Z,87.11
2018-09-10T19:27:20.126Z,87.31
2018-09-10T19:30:24.636Z,87.28
2018-09-10T19:33:29.124Z,87.21
2018-09-10T19:36:33.847Z,86.94
2018-09-10T19:39:38.296Z,85.47
2018-09-10T19:42:43.039Z,86.04
2018-09-10T19:45:47.761Z,86.26
2018-09-10T19:48:52.318Z,87.23
2018-09-10T19:51:56.852Z,86.16
2018-09-10T19:55:06.824Z,85.97
2018-09-10T19:58:11.314Z,85.49
2018-09-10T20:01:16.081Z,86.39
2018-09-10T20:04:20.620Z,86.95
2018-09-10T20:07:25.335Z,87.47
2018-09-10T20:10:29.955Z,87.88
2018-09-10T20:13:34.537Z,87.81
2018-09-10T20:16:39.963Z,87.01
2018-09-10T20:19:47.144Z,86.69
2018-09-10T20:22:51.779Z,86.25
2018-09-10T20:25:57.070Z,86.18
2018-09-10T20:29:01.817Z,85.89
2018-09-10T20:32:06.687Z,84.22
2018-09-10T20:35:11.134Z,85.29
2018-09-10T20:38:15.800Z,86.45
2018-09-10T20:41:20.276Z,86.91
2018-09-10T20:44:24.958Z,86.52
2018-09-10T20:47:29.774Z,87.33
2018-09-10T20:50:34.607Z,87.30
2018-09-10T20:53:39.271Z,87.74
2018-09-10T20:56:44.233Z,88.70
2018-09-10T20:59:48.766Z,89.53
2018-09-10T21:02:53.288Z,89.16
2018-09-10T21:05:57.980Z,89.06
2018-09-10T21:09:02.422Z,90.04
2018-09-10T21:12:07.148Z,89.37
2018-09-10T21:15:11.581Z,89.17
2018-09-10T21:18:16.080Z,89.68
2018-09-10T21:21:20.588Z,90.36
2018-09-10T21:24:24.969Z,90.11
2018-09-10T21:27:30.174Z,90.24
2018-09-10T21:30:34.622Z,90.58
2018-09-10T21:33:40.158Z,90.45
2018-09-10T21:36:44.641Z,91.32
2018-09-10T21:39:49.095Z,91.73
2018-09-10T21:42:53.604Z,92.12
2018-09-10T21:45:58.141Z,92.51
2018-09-10T21:49:02.830Z,92.41
2018-09-10T21:52:07.391Z,92.96
2018-09-10T21:55:11.912Z,93.38
2018-09-10T21:58:16.281Z,92.86
2018-09-10T22:01:20.744Z,92.82
2018-09-10T22:04:25.204Z,93.05
2018-09-10T22:07:29.945Z,93.63
2018-09-10T22:10:34.417Z,93.87
2018-09-10T22:13:40.099Z,93.90
2018-09-10T22:16:46.325Z,94.33
2018-09-10T22:19:50.756Z,94.28
2018-09-10T22:22:55.420Z,94.21
2018-09-10T22:25:59.827Z,94.39
2018-09-10T22:29:05.809Z,94.69
2018-09-10T22:32:10.965Z,94.48
2018-09-10T22:35:15.583Z,94.50
2018-09-10T22:38:19.980Z,94.02
2018-09-10T22:41:24.380Z,94.45
2018-09-10T22:44:29.474Z,93.86
2018-09-10T22:47:33.853Z,94.05
2018-09-10T22:50:38.217Z,93.15
2018-09-10T22:53:42.738Z,92.89
2018-09-10T22:56:47.325Z,92.85
2018-09-10T22:59:51.751Z,92.93
2018-09-10T23:02:56.137Z,92.93
2018-09-10T23:06:00.702Z,94.00
2018-09-10T23:09:07.361Z,93.94
2018-09-10T23:12:11.826Z,93.46
2018-09-10T23:15:16.343Z,92.96
2018-09-10T23:18:21.616Z,91.57
2018-09-10T23:21:26.318Z,92.43
2018-09-10T23:24:31.476Z,92.42
2018-09-10T23:27:36.610Z,92.55
2018-09-10T23:30:41.985Z,91.12
2018-09-10T23:33:46.870Z,90.88
2018-09-10T23:36:51.258Z,89.15
2018-09-10T23:39:55.639Z,89.94
2018-09-10T23:43:00.352Z,89.38
2018-09-10T23:46:04.851Z,88.54
2018-09-10T23:49:09.663Z,89.38
2018-09-10T23:52:14.021Z,90.04
2018-09-10T23:55:18.763Z,90.72
2018-09-10T23:58:23.126Z,89.96
